Time;durP1;ratioP1;P1;durP2;ratioP2;P2;SDS_P1;SDS_P2;PMS_P1;PMS_P2;Temp;Humidity;BMP_temperature;BMP_pressure;BME280_temperature;BME280_humidity;BME280_pressure;Samples;Min_cycle;Max_cycle;Signal;HPM_P1;HPM_P2
2021/10/11 00:00:43;;;;;;;9.60;8.57;;;9.50;99.90;;;;;;5107669;28;20230;-72
2021/10/11 00:03:10;;;;;;;11.03;8.10;;;9.50;99.90;;;;;;5107821;28;20330;-72
2021/10/11 00:05:37;;;;;;;12.37;9.00;;;9.50;99.90;;;;;;5108087;28;20206;-72
2021/10/11 00:08:06;;;;;;;9.90;8.23;;;9.40;99.90;;;;;;5108186;28;20265;-73
2021/10/11 00:10:33;;;;;;;11.83;8.70;;;9.40;99.90;;;;;;5107589;28;20936;-74
2021/10/11 00:13:00;;;;;;;12.47;9.37;;;9.40;99.90;;;;;;5107909;28;20405;-74
2021/10/11 00:15:27;;;;;;;9.07;8.20;;;9.20;99.90;;;;;;5107624;28;20202;-74
2021/10/11 00:17:54;;;;;;;11.03;8.80;;;9.20;99.90;;;;;;5107846;28;20202;-74
2021/10/11 00:20:21;;;;;;;11.03;8.53;;;9.20;99.90;;;;;;5110114;28;20263;-74
2021/10/11 00:22:48;;;;;;;10.73;8.87;;;9.20;99.90;;;;;;5111683;28;20568;-74
2021/10/11 00:25:16;;;;;;;12.27;9.47;;;9.10;99.90;;;;;;5111436;28;20314;-74
2021/10/11 00:27:43;;;;;;;12.27;9.10;;;9.10;99.90;;;;;;5111531;28;20268;-74
2021/10/11 00:30:12;;;;;;;10.03;8.57;;;9.10;99.90;;;;;;5111391;28;20259;-74
2021/10/11 00:32:39;;;;;;;9.73;8.43;;;9.10;99.90;;;;;;5111511;28;20210;-74
2021/10/11 00:35:06;;;;;;;9.37;8.37;;;9.10;99.90;;;;;;5111717;28;20226;-74
2021/10/11 00:37:33;;;;;;;10.60;8.40;;;9.10;99.90;;;;;;5111028;28;20720;-74
2021/10/11 00:40:00;;;;;;;9.97;8.73;;;9.10;99.90;;;;;;5111098;28;20310;-73
2021/10/11 00:42:27;;;;;;;11.70;8.83;;;9.10;99.90;;;;;;5111090;28;20202;-74
2021/10/11 00:44:54;;;;;;;9.63;8.50;;;9.10;99.90;;;;;;5110967;28;20238;-74
2021/10/11 00:47:21;;;;;;;10.03;8.50;;;9.00;99.90;;;;;;5110711;28;20349;-72
2021/10/11 00:49:47;;;;;;;12.07;8.90;;;9.00;99.90;;;;;;5111348;28;20595;-72
2021/10/11 00:52:14;;;;;;;11.67;9.17;;;9.00;99.90;;;;;;5110586;28;20760;-72
2021/10/11 00:54:41;;;;;;;9.90;8.90;;;9.00;99.90;;;;;;5110676;28;20691;-72
2021/10/11 00:57:07;;;;;;;9.00;8.13;;;9.00;99.90;;;;;;5110900;28;20259;-72
2021/10/11 00:59:35;;;;;;;11.73;8.40;;;9.00;99.90;;;;;;5110578;28;20715;-72
2021/10/11 01:02:02;;;;;;;11.87;8.67;;;9.00;99.90;;;;;;5110632;28;20206;-72
2021/10/11 01:04:29;;;;;;;11.43;8.60;;;9.00;99.90;;;;;;5110704;28;20762;-71
2021/10/11 01:06:56;;;;;;;12.97;9.40;;;9.00;99.90;;;;;;5110854;28;20291;-72
2021/10/11 01:09:22;;;;;;;10.23;8.27;;;9.00;99.90;;;;;;5111200;28;20206;-72
2021/10/11 01:11:50;;;;;;;10.00;8.50;;;8.90;99.90;;;;;;5111216;28;20241;-72
2021/10/11 01:14:17;;;;;;;9.80;8.03;;;8.90;99.90;;;;;;5110557;28;20209;-72
2021/10/11 01:16:45;;;;;;;9.33;8.10;;;8.90;99.90;;;;;;5111142;28;20243;-72
2021/10/11 01:19:13;;;;;;;10.23;8.83;;;8.90;99.90;;;;;;5110291;28;20613;-72
2021/10/11 01:21:41;;;;;;;11.83;8.60;;;8.90;99.90;;;;;;5110716;28;20202;-72
2021/10/11 01:24:07;;;;;;;12.57;8.23;;;8.90;99.90;;;;;;5110427;28;20318;-72
2021/10/11 01:26:38;;;;;;;11.07;8.13;;;8.90;99.90;;;;;;5110550;28;20206;-72
2021/10/11 01:29:06;;;;;;;12.00;9.20;;;8.90;99.90;;;;;;5110662;28;20202;-72
2021/10/11 01:31:33;;;;;;;9.60;8.63;;;8.90;99.90;;;;;;5109786;28;20632;-72
2021/10/11 01:34:00;;;;;;;12.27;8.40;;;8.90;99.90;;;;;;5110479;28;20229;-72
2021/10/11 01:36:27;;;;;;;9.23;8.27;;;8.90;99.90;;;;;;5110505;28;20241;-72
2021/10/11 01:38:56;;;;;;;9.67;8.63;;;8.90;99.90;;;;;;5110324;28;20366;-72
2021/10/11 01:41:23;;;;;;;16.63;10.43;;;8.90;99.90;;;;;;5110470;28;20202;-72
2021/10/11 01:43:50;;;;;;;10.70;8.67;;;8.70;99.90;;;;;;5110182;28;20226;-72
2021/10/11 01:46:17;;;;;;;10.03;9.03;;;8.50;99.90;;;;;;5110175;28;20225;-72
2021/10/11 01:48:45;;;;;;;12.33;8.97;;;8.50;99.90;;;;;;5110312;28;20625;-72
2021/10/11 01:51:12;;;;;;;12.57;9.50;;;8.50;99.90;;;;;;5109624;28;20210;-72
2021/10/11 01:53:39;;;;;;;12.73;9.13;;;8.50;99.90;;;;;;5109710;28;20291;-72
2021/10/11 01:56:07;;;;;;;10.30;9.00;;;8.70;99.90;;;;;;5109637;28;20202;-72
2021/10/11 01:58:34;;;;;;;11.70;8.90;;;8.80;99.90;;;;;;5109849;28;20282;-72
2021/10/11 02:01:01;;;;;;;12.17;8.93;;;8.90;99.90;;;;;;5109210;28;20295;-72
2021/10/11 02:03:27;;;;;;;11.30;9.60;;;9.00;99.90;;;;;;5109331;28;20715;-72
2021/10/11 02:05:54;;;;;;;11.53;9.47;;;9.10;99.90;;;;;;5109703;28;20286;-73
2021/10/11 02:08:21;;;;;;;13.57;9.33;;;9.20;99.90;;;;;;5109580;28;20611;-73
2021/10/11 02:10:47;;;;;;;12.33;9.83;;;9.20;99.90;;;;;;5109506;28;20245;-73
2021/10/11 02:13:15;;;;;;;11.97;9.63;;;9.00;99.90;;;;;;5109345;28;20232;-73
2021/10/11 02:15:42;;;;;;;10.70;9.23;;;8.80;99.90;;;;;;5109624;28;20265;-73
2021/10/11 02:18:09;;;;;;;12.07;9.17;;;8.50;99.90;;;;;;5108970;28;20303;-73
2021/10/11 02:20:36;;;;;;;10.33;9.17;;;8.50;99.90;;;;;;5109362;28;20263;-71
2021/10/11 02:23:03;;;;;;;10.30;8.70;;;8.40;99.90;;;;;;5121457;27;20635;-72
2021/10/11 02:25:30;;;;;;;12.17;9.10;;;8.40;99.90;;;;;;5120378;27;20229;-73
2021/10/11 02:27:57;;;;;;;12.23;8.97;;;8.50;99.90;;;;;;5129811;27;20266;-72
2021/10/11 02:30:24;;;;;;;10.17;9.07;;;8.60;99.90;;;;;;5122434;27;20243;-72
2021/10/11 02:32:51;;;;;;;13.33;9.40;;;8.70;99.90;;;;;;5105292;28;20436;-72
2021/10/11 02:35:20;;;;;;;9.73;8.60;;;8.50;99.90;;;;;;5106200;27;20217;-72
2021/10/11 02:37:47;;;;;;;12.33;8.53;;;8.60;99.90;;;;;;5120543;27;20300;-72
2021/10/11 02:40:14;;;;;;;9.63;8.43;;;8.60;99.90;;;;;;5114838;27;20270;-73
2021/10/11 02:42:40;;;;;;;11.53;8.83;;;8.60;99.90;;;;;;5125152;27;20209;-73
2021/10/11 02:45:08;;;;;;;10.43;9.13;;;8.70;99.90;;;;;;5125606;27;20758;-73
2021/10/11 02:47:36;;;;;;;10.23;9.23;;;8.80;99.90;;;;;;5126008;27;20228;-73
2021/10/11 02:50:02;;;;;;;9.90;8.30;;;8.70;99.90;;;;;;5125884;27;20210;-72
2021/10/11 02:52:32;;;;;;;11.17;8.30;;;8.60;99.90;;;;;;5125912;27;20209;-72
2021/10/11 02:54:59;;;;;;;9.23;8.33;;;8.70;99.90;;;;;;5125698;27;20681;-73
2021/10/11 02:57:26;;;;;;;9.60;8.70;;;8.70;99.90;;;;;;5125647;27;20255;-74
2021/10/11 02:59:53;;;;;;;12.40;9.80;;;8.70;99.90;;;;;;5125340;27;20245;-74
2021/10/11 03:02:19;;;;;;;10.30;8.60;;;8.80;99.90;;;;;;5125273;27;20707;-72
2021/10/11 03:04:49;;;;;;;10.57;8.60;;;8.50;99.90;;;;;;5125405;27;20260;-72
2021/10/11 03:07:15;;;;;;;10.70;9.40;;;8.30;99.90;;;;;;5125381;27;20312;-72
2021/10/11 03:09:42;;;;;;;10.97;8.23;;;8.20;99.90;;;;;;5125584;27;20273;-72
2021/10/11 03:12:09;;;;;;;22.27;9.00;;;8.10;99.90;;;;;;5125501;27;20202;-72
2021/10/11 03:14:35;;;;;;;14.40;9.43;;;7.90;99.90;;;;;;5125257;27;20690;-72
2021/10/11 03:17:02;;;;;;;10.37;8.97;;;8.00;99.90;;;;;;5107329;27;20832;-72
2021/10/11 03:19:28;;;;;;;9.97;8.63;;;7.90;99.90;;;;;;5087696;28;20218;-72
2021/10/11 03:21:56;;;;;;;11.13;9.57;;;8.00;99.90;;;;;;5087158;28;20207;-72
2021/10/11 03:24:23;;;;;;;11.10;8.70;;;8.10;99.90;;;;;;5086752;28;20287;-72
2021/10/11 03:26:50;;;;;;;9.87;8.87;;;8.00;99.90;;;;;;5086697;28;20255;-72
2021/10/11 03:29:17;;;;;;;10.73;8.40;;;8.20;99.90;;;;;;5086529;28;20877;-72
2021/10/11 03:31:44;;;;;;;9.47;8.47;;;8.20;99.90;;;;;;5086547;28;20673;-72
2021/10/11 03:34:12;;;;;;;9.20;8.30;;;8.30;99.90;;;;;;5086716;28;20211;-72
2021/10/11 03:36:38;;;;;;;10.87;8.93;;;8.10;99.90;;;;;;5088354;28;20575;-72
2021/10/11 03:39:06;;;;;;;11.30;9.03;;;8.10;99.90;;;;;;5088154;28;20260;-72
2021/10/11 03:41:33;;;;;;;10.17;8.50;;;7.90;99.90;;;;;;5100605;28;20206;-72
2021/10/11 03:44:00;;;;;;;13.43;8.47;;;7.90;99.90;;;;;;5108308;28;20244;-72
2021/10/11 03:46:27;;;;;;;11.37;8.53;;;7.80;99.90;;;;;;5108211;28;20616;-73
2021/10/11 03:48:53;;;;;;;9.87;8.50;;;7.70;99.90;;;;;;5108422;28;20199;-72
2021/10/11 03:51:21;;;;;;;11.17;9.10;;;7.60;99.90;;;;;;5108427;28;20311;-72
2021/10/11 03:53:48;;;;;;;11.93;9.27;;;7.40;99.90;;;;;;5108404;28;20234;-72
2021/10/11 03:56:16;;;;;;;12.60;8.53;;;7.60;99.90;;;;;;5112253;28;20259;-72
2021/10/11 03:58:43;;;;;;;9.07;8.27;;;7.40;99.90;;;;;;5112415;28;20214;-72
2021/10/11 04:01:09;;;;;;;9.40;7.97;;;7.50;99.90;;;;;;5111761;28;20233;-72
2021/10/11 04:03:36;;;;;;;11.63;9.40;;;7.60;99.90;;;;;;5112361;28;20267;-72
2021/10/11 04:06:03;;;;;;;11.17;8.73;;;7.40;99.90;;;;;;5111922;28;20242;-72
2021/10/11 04:08:35;;;;;;;9.97;8.33;;;7.40;99.90;;;;;;5111915;28;20593;-72
2021/10/11 04:11:05;;;;;;;13.03;9.13;;;7.40;99.90;;;;;;5112097;28;20301;-72
2021/10/11 04:13:33;;;;;;;9.43;8.53;;;7.50;99.90;;;;;;5112112;28;20198;-72
2021/10/11 04:16:00;;;;;;;12.33;9.17;;;7.40;99.90;;;;;;5111923;27;20241;-72
2021/10/11 04:18:27;;;;;;;9.73;8.57;;;7.40;99.90;;;;;;5112045;28;20250;-72
2021/10/11 04:20:53;;;;;;;11.63;8.97;;;7.40;99.90;;;;;;5111969;28;20230;-72
2021/10/11 04:23:20;;;;;;;10.70;8.47;;;7.60;99.90;;;;;;5111519;28;20222;-72
2021/10/11 04:25:47;;;;;;;10.20;8.97;;;7.60;99.90;;;;;;5111493;28;20298;-72
2021/10/11 04:28:15;;;;;;;11.13;9.00;;;7.80;99.90;;;;;;5111933;28;20274;-72
2021/10/11 04:30:44;;;;;;;9.57;8.63;;;7.90;99.90;;;;;;5111486;28;20206;-72
2021/10/11 04:33:11;;;;;;;12.47;9.70;;;8.00;99.90;;;;;;5111529;28;20240;-72
2021/10/11 04:35:37;;;;;;;11.50;8.63;;;8.00;99.90;;;;;;5111812;27;20266;-72
2021/10/11 04:38:04;;;;;;;10.80;8.30;;;8.20;99.90;;;;;;5111647;28;20334;-73
2021/10/11 04:40:31;;;;;;;10.63;8.93;;;8.20;99.90;;;;;;5111597;28;20202;-72
2021/10/11 04:42:58;;;;;;;9.97;8.20;;;8.30;99.90;;;;;;5111282;28;20275;-72
2021/10/11 04:45:29;;;;;;;9.70;8.50;;;8.00;99.90;;;;;;5110982;28;20691;-72
2021/10/11 04:47:58;;;;;;;12.07;8.80;;;8.10;99.90;;;;;;5111416;28;20222;-73
2021/10/11 04:50:24;;;;;;;9.77;8.73;;;8.20;99.90;;;;;;5111154;28;20612;-73
2021/10/11 04:52:51;;;;;;;9.20;8.30;;;8.20;99.90;;;;;;5111415;28;20209;-73
2021/10/11 04:55:18;;;;;;;9.40;8.43;;;8.30;99.90;;;;;;5110947;28;20243;-73
2021/10/11 04:57:44;;;;;;;10.83;8.33;;;8.40;99.90;;;;;;5111105;28;20545;-73
2021/10/11 05:00:13;;;;;;;9.53;8.53;;;8.40;99.90;;;;;;5110883;28;20244;-73
2021/10/11 05:02:40;;;;;;;10.63;8.03;;;8.50;99.90;;;;;;5111134;28;20621;-70
2021/10/11 05:05:08;;;;;;;10.27;9.03;;;8.60;99.90;;;;;;5110854;28;20218;-70
2021/10/11 05:07:35;;;;;;;9.13;8.23;;;8.30;99.90;;;;;;5110298;28;20257;-71
2021/10/11 05:10:02;;;;;;;9.03;8.13;;;8.10;99.90;;;;;;5111230;28;20202;-71
2021/10/11 05:12:29;;;;;;;9.73;8.57;;;8.10;99.90;;;;;;5111067;28;20263;-71
2021/10/11 05:14:55;;;;;;;12.07;8.80;;;8.20;99.90;;;;;;5110607;28;20676;-71
2021/10/11 05:17:22;;;;;;;13.07;9.47;;;8.30;99.90;;;;;;5107279;28;20671;-71
2021/10/11 05:19:49;;;;;;;11.40;9.27;;;8.10;99.90;;;;;;5110569;28;20260;-72
2021/10/11 05:22:17;;;;;;;10.37;8.27;;;8.00;99.90;;;;;;5110701;28;20228;-72
2021/10/11 05:24:44;;;;;;;12.40;9.20;;;7.90;99.90;;;;;;5110629;28;20290;-72
2021/10/11 05:27:10;;;;;;;11.77;9.50;;;8.10;99.90;;;;;;5110548;28;20259;-72
2021/10/11 05:29:38;;;;;;;13.00;9.17;;;8.10;99.90;;;;;;5110927;28;20248;-72
2021/10/11 05:32:05;;;;;;;12.70;8.60;;;8.30;99.90;;;;;;5109982;28;20694;-72
2021/10/11 05:34:32;;;;;;;12.53;9.30;;;8.40;99.90;;;;;;5110419;28;20216;-72
2021/10/11 05:36:59;;;;;;;11.27;8.53;;;8.40;99.90;;;;;;5110279;28;20741;-72
2021/10/11 05:39:27;;;;;;;10.27;8.97;;;8.40;99.90;;;;;;5110315;27;20245;-72
2021/10/11 05:41:54;;;;;;;10.30;9.03;;;8.30;99.90;;;;;;5110194;28;20737;-72
2021/10/11 05:44:21;;;;;;;10.00;8.73;;;8.30;99.90;;;;;;5109807;28;20222;-72
2021/10/11 05:46:48;;;;;;;10.63;9.57;;;8.40;99.90;;;;;;5110008;28;20479;-72
2021/10/11 05:49:15;;;;;;;12.43;9.70;;;8.20;99.90;;;;;;5109992;28;20205;-72
2021/10/11 05:51:42;;;;;;;11.40;9.80;;;8.20;99.90;;;;;;5110063;28;20216;-72
2021/10/11 05:54:08;;;;;;;11.67;9.50;;;8.20;99.90;;;;;;5109871;28;20259;-72
2021/10/11 05:56:36;;;;;;;12.57;9.43;;;8.00;99.90;;;;;;5109907;28;20241;-72
2021/10/11 05:59:03;;;;;;;12.03;9.87;;;7.90;99.90;;;;;;5109825;28;20198;-72
2021/10/11 06:01:30;;;;;;;13.23;10.33;;;7.80;99.90;;;;;;5110052;28;20230;-72
2021/10/11 06:03:56;;;;;;;10.63;9.53;;;7.70;99.90;;;;;;5109624;28;20206;-72
2021/10/11 06:06:23;;;;;;;11.10;10.00;;;7.70;99.90;;;;;;5109424;28;20265;-72
2021/10/11 06:08:50;;;;;;;13.00;10.17;;;7.80;99.90;;;;;;5109607;28;20801;-72
2021/10/11 06:11:17;;;;;;;11.77;10.10;;;7.70;99.90;;;;;;5109739;28;20237;-72
2021/10/11 06:13:45;;;;;;;11.53;10.33;;;7.50;99.90;;;;;;5109598;28;20202;-72
2021/10/11 06:16:13;;;;;;;13.07;10.60;;;7.40;99.90;;;;;;5095735;28;20240;-72
2021/10/11 06:18:39;;;;;;;13.93;10.70;;;7.60;99.90;;;;;;5109095;28;20615;-72
2021/10/11 06:21:06;;;;;;;14.97;10.60;;;7.60;99.90;;;;;;5109829;28;20210;-72
2021/10/11 06:23:33;;;;;;;15.47;11.23;;;7.60;99.90;;;;;;5109299;28;20658;-72
2021/10/11 06:26:00;;;;;;;12.60;10.83;;;7.60;99.90;;;;;;5109740;28;20311;-72
2021/10/11 06:28:27;;;;;;;12.33;11.03;;;7.60;99.90;;;;;;5109440;28;20206;-72
2021/10/11 06:30:54;;;;;;;13.60;11.07;;;7.60;99.90;;;;;;5109140;28;20660;-72
2021/10/11 06:33:22;;;;;;;12.30;10.97;;;7.60;99.90;;;;;;5108856;28;20672;-72
2021/10/11 06:35:49;;;;;;;12.77;10.57;;;7.50;99.90;;;;;;5109122;28;20639;-72
2021/10/11 06:38:16;;;;;;;13.47;11.00;;;7.60;99.90;;;;;;5109256;28;20222;-72
2021/10/11 06:40:46;;;;;;;12.40;11.10;;;7.70;99.90;;;;;;5109442;28;20209;-72
2021/10/11 06:43:12;;;;;;;16.20;11.20;;;7.80;99.90;;;;;;5108690;27;20201;-72
2021/10/11 06:45:39;;;;;;;15.90;11.53;;;7.90;99.90;;;;;;5108538;28;20725;-72
2021/10/11 06:48:07;;;;;;;15.67;11.53;;;7.80;99.90;;;;;;5109146;28;20221;-72
2021/10/11 06:50:33;;;;;;;18.47;14.33;;;7.90;99.90;;;;;;5109171;28;20306;-72
2021/10/11 06:53:00;;;;;;;13.80;11.27;;;7.90;99.90;;;;;;5109085;28;20206;-72
2021/10/11 06:55:27;;;;;;;14.43;11.17;;;8.00;99.90;;;;;;5108813;28;20202;-72
2021/10/11 06:57:53;;;;;;;18.57;12.20;;;8.00;99.90;;;;;;5108998;28;20202;-72
2021/10/11 07:00:20;;;;;;;16.63;12.33;;;7.80;99.90;;;;;;5108573;28;20238;-72
2021/10/11 07:02:46;;;;;;;13.43;11.47;;;7.80;99.90;;;;;;5108803;28;20202;-71
2021/10/11 07:05:16;;;;;;;13.97;12.10;;;7.90;99.90;;;;;;5108265;28;20692;-71
2021/10/11 07:07:44;;;;;;;15.27;12.00;;;7.90;99.90;;;;;;5108778;28;20251;-71
2021/10/11 07:10:11;;;;;;;14.93;11.97;;;7.90;99.90;;;;;;5108495;28;20210;-71
2021/10/11 07:12:37;;;;;;;14.13;11.83;;;7.90;99.90;;;;;;5108565;28;20680;-71
2021/10/11 07:15:06;;;;;;;15.50;12.10;;;8.00;99.90;;;;;;5108497;28;20237;-71
2021/10/11 07:17:33;;;;;;;18.40;12.20;;;8.00;99.90;;;;;;5108608;28;20210;-71
2021/10/11 07:19:59;;;;;;;16.57;11.60;;;8.10;99.90;;;;;;5108642;28;20202;-71
2021/10/11 07:22:27;;;;;;;17.77;12.63;;;8.30;99.90;;;;;;5108367;28;20235;-71
2021/10/11 07:24:54;;;;;;;16.80;12.43;;;8.30;99.90;;;;;;5108375;28;20206;-71
2021/10/11 07:27:20;;;;;;;18.10;11.97;;;8.30;99.90;;;;;;5108200;28;20725;-72
2021/10/11 07:29:47;;;;;;;15.20;12.00;;;8.50;99.90;;;;;;5112381;28;20241;-72
2021/10/11 07:32:14;;;;;;;14.97;11.90;;;8.50;99.90;;;;;;5114177;27;20721;-72
2021/10/11 07:34:40;;;;;;;16.53;12.43;;;8.50;99.90;;;;;;5115549;27;20659;-71
2021/10/11 07:37:07;;;;;;;17.30;13.00;;;8.60;99.90;;;;;;5115496;28;20222;-71
2021/10/11 07:39:35;;;;;;;17.43;13.67;;;8.70;99.90;;;;;;5115504;27;20999;-71
2021/10/11 07:42:01;;;;;;;17.67;13.63;;;8.80;99.90;;;;;;5115268;27;20602;-71
2021/10/11 07:44:29;;;;;;;15.40;12.77;;;8.70;99.90;;;;;;5114516;28;20731;-71
2021/10/11 07:46:57;;;;;;;15.27;12.67;;;8.70;99.90;;;;;;5114843;28;20666;-71
2021/10/11 07:49:23;;;;;;;17.60;13.57;;;8.90;99.90;;;;;;5115228;28;20202;-71
2021/10/11 07:51:50;;;;;;;17.47;14.03;;;8.90;99.90;;;;;;5114969;28;20699;-72
2021/10/11 07:54:18;;;;;;;20.67;13.30;;;8.90;99.90;;;;;;5115324;28;20286;-71
2021/10/11 07:56:47;;;;;;;17.73;14.27;;;9.00;99.90;;;;;;5115132;28;20205;-71
2021/10/11 07:59:13;;;;;;;19.43;13.83;;;8.90;99.90;;;;;;5114647;27;20202;-72
2021/10/11 08:01:40;;;;;;;17.23;14.50;;;8.90;99.90;;;;;;5115222;28;20186;-71
2021/10/11 08:04:06;;;;;;;19.63;14.57;;;8.90;99.90;;;;;;5115033;28;20271;-72
2021/10/11 08:06:34;;;;;;;20.70;14.93;;;8.90;99.90;;;;;;5114985;28;20229;-71
2021/10/11 08:09:01;;;;;;;20.07;14.77;;;9.00;99.90;;;;;;5114908;28;20667;-71
2021/10/11 08:11:27;;;;;;;18.70;15.07;;;8.90;99.90;;;;;;5114947;27;20246;-72
2021/10/11 08:13:55;;;;;;;21.00;15.73;;;8.90;99.90;;;;;;5114878;28;20202;-71
2021/10/11 08:16:22;;;;;;;21.97;15.53;;;8.90;99.90;;;;;;5114606;28;20734;-72
2021/10/11 08:18:49;;;;;;;23.00;16.37;;;8.90;99.90;;;;;;5114801;28;20213;-71
2021/10/11 08:21:15;;;;;;;19.50;15.60;;;8.90;99.90;;;;;;5114347;28;20614;-71
2021/10/11 08:23:42;;;;;;;22.47;17.03;;;8.70;99.90;;;;;;5114950;27;20259;-72
2021/10/11 08:26:09;;;;;;;26.30;17.40;;;8.70;99.90;;;;;;5114771;28;20230;-72
2021/10/11 08:28:36;;;;;;;21.00;16.10;;;8.70;99.90;;;;;;5114962;28;20762;-72
2021/10/11 08:31:05;;;;;;;24.27;17.47;;;8.70;99.90;;;;;;5114569;28;20744;-71
2021/10/11 08:33:31;;;;;;;25.20;17.93;;;8.70;99.90;;;;;;5114613;28;20230;-72
2021/10/11 08:36:01;;;;;;;22.10;17.47;;;8.80;99.90;;;;;;5114847;28;20254;-71
2021/10/11 08:38:27;;;;;;;22.20;16.33;;;8.80;99.90;;;;;;5114629;28;20209;-72
2021/10/11 08:40:54;;;;;;;29.03;19.10;;;8.80;99.90;;;;;;5113091;28;20202;-71
2021/10/11 08:43:22;;;;;;;24.03;17.87;;;8.90;99.90;;;;;;5111269;28;20271;-71
2021/10/11 08:45:50;;;;;;;25.60;18.17;;;9.00;99.90;;;;;;5111148;28;20341;-72
2021/10/11 08:48:19;;;;;;;22.63;17.23;;;9.10;99.90;;;;;;5111259;28;20259;-72
2021/10/11 08:50:45;;;;;;;30.20;18.80;;;9.20;99.90;;;;;;5111269;28;20652;-71
2021/10/11 08:53:14;;;;;;;26.87;19.13;;;9.20;99.90;;;;;;5111404;27;20242;-72
2021/10/11 08:55:41;;;;;;;25.67;18.40;;;9.30;99.90;;;;;;5111370;28;20210;-72
2021/10/11 08:58:08;;;;;;;23.60;18.63;;;9.40;99.90;;;;;;5111222;28;20198;-72
2021/10/11 09:00:36;;;;;;;26.27;18.97;;;9.40;99.90;;;;;;5110787;28;20240;-71
2021/10/11 09:03:05;;;;;;;25.70;19.13;;;9.50;99.90;;;;;;5111170;28;20236;-71
2021/10/11 09:05:36;;;;;;;23.57;18.10;;;9.60;99.90;;;;;;5110923;28;20230;-71
2021/10/11 09:08:05;;;;;;;25.93;18.90;;;9.60;99.90;;;;;;5111113;28;20558;-72
2021/10/11 09:10:33;;;;;;;25.70;19.13;;;9.60;99.90;;;;;;5110999;28;20230;-72
2021/10/11 09:13:00;;;;;;;24.43;18.70;;;9.80;99.90;;;;;;5110706;28;20206;-72
2021/10/11 09:15:30;;;;;;;23.77;19.00;;;10.00;99.90;;;;;;5110831;28;20210;-72
2021/10/11 09:18:00;;;;;;;24.57;18.63;;;10.20;99.90;;;;;;5110999;28;20221;-71
2021/10/11 09:20:27;;;;;;;25.97;18.03;;;10.40;99.90;;;;;;5110812;28;20202;-72
2021/10/11 09:22:57;;;;;;;22.90;17.20;;;10.40;99.90;;;;;;5110881;28;20623;-72
2021/10/11 09:25:33;;;;;;;25.37;17.87;;;10.60;99.90;;;;;;5110422;28;20678;-72
2021/10/11 09:28:00;;;;;;;21.87;17.13;;;10.50;99.90;;;;;;5110878;28;20229;-72
2021/10/11 09:30:30;;;;;;;21.57;16.47;;;10.50;99.90;;;;;;5110572;28;20221;-72
2021/10/11 09:33:08;;;;;;;25.13;17.83;;;10.70;99.90;;;;;;5110617;28;20194;-72
2021/10/11 09:35:35;;;;;;;27.10;17.43;;;11.00;99.90;;;;;;5110449;28;20227;-72
2021/10/11 09:38:03;;;;;;;27.87;18.43;;;11.00;99.90;;;;;;5110450;28;20568;-72
2021/10/11 09:40:41;;;;;;;23.10;16.97;;;11.10;99.90;;;;;;5110463;28;20198;-72
2021/10/11 09:43:14;;;;;;;23.53;16.90;;;11.10;99.90;;;;;;5110328;28;20309;-72
2021/10/11 09:45:41;;;;;;;25.17;16.93;;;11.20;99.90;;;;;;5110231;28;20275;-72
2021/10/11 09:48:09;;;;;;;21.10;15.97;;;11.20;99.90;;;;;;5110112;28;20218;-72
2021/10/11 09:50:36;;;;;;;21.53;15.73;;;11.40;99.90;;;;;;5110329;28;20251;-72
2021/10/11 09:53:06;;;;;;;20.60;16.10;;;11.50;99.90;;;;;;5109145;28;20628;-72
2021/10/11 09:55:34;;;;;;;20.50;16.27;;;11.80;99.90;;;;;;5110084;28;20214;-72
2021/10/11 09:58:00;;;;;;;21.63;16.10;;;11.80;99.90;;;;;;5109869;28;20213;-71
2021/10/11 10:00:27;;;;;;;20.67;15.17;;;11.80;99.90;;;;;;5109758;28;20735;-72
2021/10/11 10:02:55;;;;;;;22.10;15.40;;;11.80;99.90;;;;;;5109741;28;20206;-72
2021/10/11 10:05:26;;;;;;;22.23;15.40;;;11.80;99.90;;;;;;5110004;28;20222;-72
2021/10/11 10:07:55;;;;;;;21.07;15.60;;;12.00;99.90;;;;;;5110023;28;20222;-72
2021/10/11 10:10:25;;;;;;;21.87;14.60;;;12.00;99.90;;;;;;5109909;28;20244;-71
2021/10/11 10:12:53;;;;;;;20.27;14.10;;;12.20;99.90;;;;;;5109949;28;20226;-72
2021/10/11 10:15:28;;;;;;;18.80;15.10;;;12.20;99.90;;;;;;5109709;28;20207;-72
2021/10/11 10:18:08;;;;;;;20.67;15.43;;;12.40;99.90;;;;;;5109770;28;20296;-72
2021/10/11 10:20:36;;;;;;;19.43;14.30;;;12.70;99.90;;;;;;5109755;28;20206;-72
2021/10/11 10:23:06;;;;;;;18.73;14.63;;;13.00;99.90;;;;;;5109658;28;20237;-73
2021/10/11 10:25:44;;;;;;;17.67;15.17;;;13.00;99.90;;;;;;5109478;28;20275;-73
2021/10/11 10:28:12;;;;;;;17.53;14.17;;;12.90;99.90;;;;;;5109340;28;20221;-73
2021/10/11 10:30:39;;;;;;;20.70;13.13;;;13.00;99.90;;;;;;5109389;27;20292;-73
2021/10/11 10:33:08;;;;;;;18.00;12.83;;;13.10;99.90;;;;;;5109420;28;20238;-70
2021/10/11 10:35:39;;;;;;;20.23;13.93;;;13.40;99.90;;;;;;5109304;28;20206;-71
2021/10/11 10:38:16;;;;;;;17.00;12.37;;;13.50;99.90;;;;;;5109382;28;20359;-71
2021/10/11 10:40:45;;;;;;;16.80;12.33;;;13.60;99.90;;;;;;5109325;28;20201;-71
2021/10/11 10:43:15;;;;;;;17.40;11.33;;;13.70;99.90;;;;;;5109195;28;20279;-71
2021/10/11 10:45:41;;;;;;;17.90;11.60;;;13.80;99.90;;;;;;5108564;28;20596;-71
2021/10/11 10:48:18;;;;;;;19.10;11.37;;;14.00;99.90;;;;;;5108824;28;20362;-71
2021/10/11 10:50:45;;;;;;;17.70;11.93;;;14.00;99.90;;;;;;5109035;28;20217;-71
2021/10/11 10:53:12;;;;;;;15.30;11.03;;;14.00;99.90;;;;;;5108732;28;20765;-71
2021/10/11 10:55:39;;;;;;;16.77;11.17;;;14.10;99.90;;;;;;5109111;28;20209;-71
2021/10/11 10:58:10;;;;;;;18.40;11.70;;;14.30;99.90;;;;;;5109223;28;20206;-71
2021/10/11 11:00:38;;;;;;;16.27;11.07;;;14.30;99.90;;;;;;5108453;28;20742;-71
2021/10/11 11:03:09;;;;;;;20.37;11.27;;;14.20;99.90;;;;;;5108773;28;20209;-71
2021/10/11 11:05:37;;;;;;;16.90;10.57;;;14.10;99.90;;;;;;5108189;28;20224;-71
2021/10/11 11:08:04;;;;;;;14.03;10.30;;;14.00;99.90;;;;;;5108486;28;20703;-71
2021/10/11 11:10:32;;;;;;;12.50;9.30;;;13.80;99.90;;;;;;5108370;28;20620;-71
2021/10/11 11:13:01;;;;;;;13.30;9.50;;;13.80;99.90;;;;;;5108845;28;20296;-71
2021/10/11 11:15:32;;;;;;;15.57;9.77;;;13.90;99.90;;;;;;5108820;28;20209;-71
2021/10/11 11:18:00;;;;;;;16.27;9.67;;;14.00;99.90;;;;;;5108551;28;20563;-71
2021/10/11 11:20:29;;;;;;;12.13;9.17;;;13.90;99.90;;;;;;5108420;28;20198;-71
2021/10/11 11:23:00;;;;;;;15.97;9.43;;;13.90;99.90;;;;;;5108745;28;20202;-71
2021/10/11 11:25:28;;;;;;;15.50;8.20;;;14.00;99.90;;;;;;5108644;28;20233;-71
2021/10/11 11:27:57;;;;;;;11.07;7.47;;;13.80;99.90;;;;;;5108546;28;20241;-71
2021/10/11 11:30:25;;;;;;;15.40;7.83;;;13.90;99.90;;;;;;5108537;28;20217;-72
2021/10/11 11:32:55;;;;;;;12.23;8.20;;;14.00;99.90;;;;;;5108653;28;20202;-71
2021/10/11 11:35:24;;;;;;;14.73;9.07;;;13.90;99.90;;;;;;5108484;28;20249;-71
2021/10/11 11:37:52;;;;;;;15.10;8.90;;;13.80;99.90;;;;;;5108727;28;20206;-71
2021/10/11 11:40:21;;;;;;;14.50;9.07;;;13.80;99.90;;;;;;5108533;28;20241;-71
2021/10/11 11:42:49;;;;;;;13.07;7.80;;;13.80;99.90;;;;;;5108275;28;20282;-71
2021/10/11 11:45:16;;;;;;;11.93;7.27;;;13.80;99.90;;;;;;5108175;28;20279;-71
2021/10/11 11:47:43;;;;;;;14.10;8.07;;;13.80;99.90;;;;;;5107985;28;20241;-71
2021/10/11 11:50:19;;;;;;;13.63;6.83;;;13.80;99.90;;;;;;5108091;28;20631;-71
2021/10/11 11:52:51;;;;;;;13.27;6.90;;;13.70;99.90;;;;;;5108552;28;20226;-72
2021/10/11 11:55:18;;;;;;;11.47;6.10;;;13.70;99.90;;;;;;5108285;28;20273;-71
2021/10/11 11:57:46;;;;;;;13.10;6.80;;;13.60;99.90;;;;;;5108397;28;20569;-71
2021/10/11 12:00:14;;;;;;;12.17;5.83;;;13.60;99.90;;;;;;5108113;28;20238;-72
2021/10/11 12:02:44;;;;;;;10.03;5.90;;;13.90;99.90;;;;;;5108262;28;20236;-71
2021/10/11 12:05:11;;;;;;;11.90;6.10;;;14.20;99.90;;;;;;5108093;28;20233;-71
2021/10/11 12:07:42;;;;;;;13.07;6.63;;;14.40;99.90;;;;;;5108125;28;20230;-71
2021/10/11 12:10:12;;;;;;;8.80;5.77;;;14.50;99.90;;;;;;5108201;28;20561;-71
2021/10/11 12:12:38;;;;;;;13.33;6.20;;;14.40;99.90;;;;;;5108085;28;20798;-72
2021/10/11 12:15:06;;;;;;;11.13;6.53;;;14.50;99.90;;;;;;5108552;28;20568;-72
2021/10/11 12:17:34;;;;;;;11.23;6.60;;;14.50;99.90;;;;;;5112103;28;20255;-71
2021/10/11 12:20:01;;;;;;;9.83;6.70;;;14.50;99.90;;;;;;5111839;28;20212;-72
2021/10/11 12:22:29;;;;;;;13.53;6.83;;;14.30;99.90;;;;;;5112178;27;20206;-71
2021/10/11 12:25:01;;;;;;;11.30;6.43;;;14.20;99.90;;;;;;5111925;28;20455;-71
2021/10/11 12:27:28;;;;;;;12.17;6.23;;;14.40;99.90;;;;;;5111554;28;20248;-71
2021/10/11 12:29:55;;;;;;;9.47;5.10;;;14.40;99.90;;;;;;5111992;28;20247;-71
2021/10/11 12:32:30;;;;;;;8.63;5.07;;;14.40;99.90;;;;;;5111250;28;20895;-72
2021/10/11 12:34:58;;;;;;;13.57;5.27;;;14.10;99.90;;;;;;5111724;28;20212;-71
2021/10/11 12:37:25;;;;;;;8.70;5.53;;;13.90;99.90;;;;;;5111528;28;20259;-71
2021/10/11 12:39:53;;;;;;;10.77;5.90;;;13.80;99.90;;;;;;5111251;28;20663;-71
2021/10/11 12:42:24;;;;;;;8.93;5.10;;;13.90;99.90;;;;;;5111434;28;20222;-71